KCHA/CHA METAR and TAF weather

Enter ICAO airport designator
Station Type Date Time Source
KCHA METAR 2020/09/23 17:53 UTC NOAA

KCHA 231753Z 07006KT 10SM FEW045 BKN120 BKN180 BKN250 23/12 A3007 RMK AO2 SLP178 T02330117 10239 20144 58018


Station Type Date Time Source
KCHA Decoded METAR 2020/09/23 17:53 UTC NOAA

LOVELL FIELD, TN, United States (KCHA) 35-02N 085-12W 210M
Sep 23, 2020 - 01:53 PM EDT / 2020.09.23 1753 UTC
Wind: from the ENE (070 degrees) at 7 MPH (6 KT):0
Visibility: 10 mile(s):0
Sky conditions: mostly cloudy
Temperature: 73.9 F (23.3 C)
Dew Point: 53.1 F (11.7 C)
Relative Humidity: 48%
Pressure (altimeter): 30.07 in. Hg (1018 hPa)
Pressure tendency: 0.05 inches (1.8 hPa) lower than three hours ago
ob: KCHA 231753Z 07006KT 10SM FEW045 BKN120 BKN180 BKN250 23/12 A3007 RMK AO2 SLP178 T02330117 10239 20144 58018
cycle: 18

Station Type Date Time Source
KCHA TAF 2020/09/23 18:36 UTC NOAA

TAF KCHA 231733Z 2318/2418 VRB03KT P6SM BKN100 PROB30 2405/2411 4SM -SHRA BR OVC025
FM241100 00000KT 6SM SHRA BR OVC025
FM241500 11004KT 4SM SHRA BR OVC025

Example: see airport list